createdAt,value
2024-02-29T00:02:18.874Z,8.73
2024-02-29T00:04:47.258Z,8.48
2024-02-29T00:07:13.999Z,8.85
2024-02-29T00:09:40.911Z,7.75
2024-02-29T00:12:07.798Z,9.10
2024-02-29T00:14:34.505Z,8.68
2024-02-29T00:17:02.536Z,8.50
2024-02-29T00:19:29.400Z,12.23
2024-02-29T00:21:57.263Z,8.93
2024-02-29T00:26:50.870Z,8.50
2024-02-29T00:29:17.677Z,8.55
2024-02-29T00:31:45.562Z,9.70
2024-02-29T00:34:15.746Z,8.90
2024-02-29T00:36:42.600Z,8.77
2024-02-29T00:39:14.632Z,8.80
2024-02-29T00:41:42.149Z,8.18
2024-02-29T00:44:08.844Z,9.05
2024-02-29T00:46:38.715Z,8.80
2024-02-29T00:49:05.715Z,9.10
2024-02-29T00:51:32.648Z,10.37
2024-02-29T00:53:59.518Z,9.97
2024-02-29T00:56:26.637Z,9.85
2024-02-29T01:01:40.443Z,9.80
2024-02-29T01:04:07.328Z,9.75
2024-02-29T01:06:34.285Z,9.15
2024-02-29T01:09:01.542Z,9.02
2024-02-29T01:11:28.341Z,9.45
2024-02-29T01:13:58.464Z,9.77
2024-02-29T01:16:25.234Z,9.95
2024-02-29T01:18:52.090Z,9.63
2024-02-29T01:21:19.255Z,9.77
2024-02-29T01:23:46.072Z,10.57
2024-02-29T01:26:13.002Z,9.80
2024-02-29T01:28:39.794Z,8.25
2024-02-29T01:31:07.218Z,10.57
2024-02-29T01:33:34.055Z,10.50
2024-02-29T01:36:01.000Z,10.33
2024-02-29T01:38:27.906Z,10.15
2024-02-29T01:40:54.934Z,10.77
2024-02-29T01:43:21.655Z,11.23
2024-02-29T01:45:58.072Z,10.50
2024-02-29T01:48:25.119Z,11.63
2024-02-29T01:50:52.170Z,11.50
2024-02-29T01:53:18.953Z,11.33
2024-02-29T01:55:45.900Z,11.60
2024-02-29T01:58:15.470Z,10.87
2024-02-29T02:00:42.651Z,11.60
2024-02-29T02:03:09.887Z,11.43
2024-02-29T02:05:36.965Z,10.95
2024-02-29T02:08:05.344Z,11.07
2024-02-29T02:10:32.108Z,12.13
2024-02-29T02:12:58.897Z,11.88
2024-02-29T02:15:25.820Z,12.27
2024-02-29T02:17:52.641Z,11.93
2024-02-29T02:20:19.718Z,13.68
2024-02-29T02:22:46.789Z,11.80
2024-02-29T02:25:13.927Z,12.20
2024-02-29T02:27:41.058Z,12.73
2024-02-29T02:30:08.551Z,12.57
2024-02-29T02:32:36.811Z,11.43
2024-02-29T02:35:08.248Z,12.27
2024-02-29T02:37:35.483Z,12.05
2024-02-29T02:40:02.578Z,11.70
2024-02-29T02:42:29.446Z,13.07
2024-02-29T02:44:56.165Z,12.85
2024-02-29T02:47:23.049Z,11.00
2024-02-29T02:49:50.141Z,11.57
2024-02-29T02:52:17.050Z,12.87
2024-02-29T02:54:43.886Z,9.60
2024-02-29T02:57:10.652Z,12.90
2024-02-29T02:59:37.466Z,13.82
2024-02-29T03:02:04.318Z,12.10
2024-02-29T03:04:31.158Z,13.68
2024-02-29T03:06:57.915Z,13.23
2024-02-29T03:09:24.711Z,12.40
2024-02-29T03:11:51.616Z,12.63
2024-02-29T03:14:18.452Z,14.13
2024-02-29T03:16:45.192Z,15.18
2024-02-29T03:19:12.002Z,13.82
2024-02-29T03:21:38.778Z,13.07
2024-02-29T03:24:05.841Z,13.60
2024-02-29T03:26:32.727Z,12.97
2024-02-29T03:29:00.101Z,13.10
2024-02-29T03:31:26.901Z,12.90
2024-02-29T03:33:53.685Z,12.05
2024-02-29T03:36:20.479Z,12.00
2024-02-29T03:38:47.391Z,12.48
2024-02-29T03:41:14.244Z,12.60
2024-02-29T03:43:41.218Z,12.73
2024-02-29T03:46:08.429Z,12.27
2024-02-29T03:48:35.238Z,10.07
2024-02-29T03:51:02.479Z,11.75
2024-02-29T03:53:29.492Z,13.05
2024-02-29T03:55:56.719Z,13.37
2024-02-29T03:58:23.680Z,12.40
2024-02-29T04:00:50.589Z,12.47
2024-02-29T04:03:17.463Z,13.18
2024-02-29T04:05:44.686Z,12.95
2024-02-29T04:08:14.416Z,12.27
2024-02-29T04:10:49.936Z,12.63
2024-02-29T04:13:18.810Z,12.00
2024-02-29T04:15:49.346Z,12.38
2024-02-29T04:18:16.730Z,10.38
2024-02-29T04:20:43.696Z,11.95
2024-02-29T04:23:10.407Z,12.10
2024-02-29T04:25:37.357Z,11.43
2024-02-29T04:28:04.636Z,11.87
2024-02-29T04:30:31.758Z,11.02
2024-02-29T04:32:58.729Z,11.60
2024-02-29T04:35:25.562Z,11.18
2024-02-29T04:37:52.277Z,11.15
2024-02-29T04:40:19.287Z,11.30
2024-02-29T04:42:46.088Z,10.97
2024-02-29T04:45:13.006Z,10.52
2024-02-29T04:47:41.341Z,11.00
2024-02-29T04:50:08.458Z,11.15
2024-02-29T04:52:35.348Z,10.10
2024-02-29T04:55:02.908Z,10.67
2024-02-29T04:57:29.822Z,9.52
2024-02-29T04:59:57.279Z,11.07
2024-02-29T05:02:24.492Z,10.68
2024-02-29T05:04:51.408Z,9.45
2024-02-29T05:07:18.473Z,10.43
2024-02-29T05:09:45.727Z,9.13
2024-02-29T05:12:12.622Z,10.30
2024-02-29T05:14:39.436Z,9.77
2024-02-29T05:17:06.840Z,10.05
2024-02-29T05:19:33.734Z,9.63
2024-02-29T05:22:00.448Z,9.98
2024-02-29T05:24:27.263Z,10.13
2024-02-29T05:26:54.027Z,10.43
2024-02-29T05:29:20.755Z,10.35
2024-02-29T05:31:53.752Z,11.23
2024-02-29T05:34:25.253Z,10.70
2024-02-29T05:36:52.308Z,9.95
2024-02-29T05:39:19.449Z,11.18
2024-02-29T05:41:46.655Z,10.77
2024-02-29T05:44:13.582Z,11.05
2024-02-29T05:46:40.307Z,11.13
2024-02-29T05:49:07.985Z,9.88
2024-02-29T05:51:34.882Z,11.20
2024-02-29T05:54:01.759Z,12.07
2024-02-29T05:56:28.614Z,12.38
2024-02-29T05:58:55.494Z,12.15
2024-02-29T06:01:23.109Z,12.23
2024-02-29T06:03:50.101Z,11.70
2024-02-29T06:06:17.249Z,13.60
2024-02-29T06:08:44.091Z,12.57
2024-02-29T06:11:15.351Z,12.77
2024-02-29T06:13:42.718Z,13.82
2024-02-29T06:16:12.110Z,15.50
2024-02-29T06:18:38.959Z,22.42
2024-02-29T06:21:09.082Z,13.82
2024-02-29T06:23:38.011Z,13.48
2024-02-29T06:26:05.197Z,12.52
2024-02-29T06:28:32.048Z,12.67
2024-02-29T06:31:09.050Z,12.38
2024-02-29T06:33:36.796Z,13.70
2024-02-29T06:36:10.279Z,13.32
2024-02-29T06:38:37.221Z,27.13
2024-02-29T06:41:09.001Z,18.60
2024-02-29T06:43:35.845Z,12.63
2024-02-29T06:46:06.896Z,12.77
2024-02-29T06:48:33.773Z,13.27
2024-02-29T06:51:00.669Z,13.65
2024-02-29T06:53:27.604Z,11.60
2024-02-29T06:55:54.311Z,13.25
2024-02-29T06:58:22.793Z,12.73
2024-02-29T07:00:50.095Z,12.20
2024-02-29T07:03:17.454Z,14.18
2024-02-29T07:05:44.472Z,13.07
2024-02-29T07:08:14.908Z,12.40
2024-02-29T07:10:42.805Z,12.10
2024-02-29T07:15:36.892Z,12.20
2024-02-29T07:18:04.108Z,11.17
2024-02-29T07:20:30.898Z,14.93
2024-02-29T07:22:58.122Z,11.57
2024-02-29T07:25:24.997Z,11.90
2024-02-29T07:27:51.801Z,10.95
2024-02-29T07:33:40.133Z,14.82
2024-02-29T07:36:07.642Z,9.77
2024-02-29T07:38:34.572Z,9.90
2024-02-29T07:41:01.402Z,10.63
2024-02-29T07:43:28.380Z,11.27
2024-02-29T07:45:55.498Z,11.33
2024-02-29T07:48:22.364Z,9.93
2024-02-29T07:50:50.645Z,10.93
2024-02-29T07:53:18.647Z,10.32
2024-02-29T07:55:45.441Z,8.48
2024-02-29T07:58:12.417Z,9.27
2024-02-29T08:00:39.468Z,7.90
2024-02-29T08:03:06.785Z,10.43
2024-02-29T08:05:35.967Z,8.43
2024-02-29T08:08:02.770Z,9.65
2024-02-29T08:10:29.705Z,9.93
2024-02-29T08:12:56.618Z,9.73
2024-02-29T08:15:23.388Z,10.55
2024-02-29T08:17:50.167Z,8.75
2024-02-29T08:20:21.663Z,6.13
2024-02-29T08:22:55.346Z,9.55
2024-02-29T08:25:23.273Z,6.72
2024-02-29T08:27:50.259Z,11.60
2024-02-29T08:30:17.545Z,6.43
2024-02-29T08:32:44.773Z,10.48
2024-02-29T08:35:12.256Z,7.40
2024-02-29T08:37:41.443Z,8.98
2024-02-29T08:40:09.079Z,9.07
2024-02-29T08:42:36.227Z,8.30
2024-02-29T08:45:04.422Z,8.40
2024-02-29T08:47:31.383Z,7.72
2024-02-29T08:49:58.587Z,8.03
2024-02-29T08:52:26.210Z,8.27
2024-02-29T08:54:53.090Z,7.65
2024-02-29T08:57:20.683Z,8.47
2024-02-29T08:59:47.509Z,7.43
2024-02-29T09:02:14.597Z,8.20
2024-02-29T09:04:41.481Z,7.03
2024-02-29T09:07:08.360Z,8.10
2024-02-29T09:09:35.284Z,8.20
2024-02-29T09:12:02.154Z,8.10
2024-02-29T09:14:28.970Z,7.75
2024-02-29T09:16:55.845Z,7.97
2024-02-29T09:19:23.580Z,9.10
2024-02-29T09:24:18.656Z,7.90
2024-02-29T09:26:45.462Z,7.75
2024-02-29T09:29:12.297Z,7.18
2024-02-29T09:31:39.260Z,8.63
2024-02-29T09:34:06.327Z,7.67
2024-02-29T09:36:33.202Z,7.20
2024-02-29T09:39:00.336Z,9.20
2024-02-29T09:41:41.535Z,6.87
2024-02-29T09:44:16.932Z,7.00
2024-02-29T09:46:48.243Z,6.95
2024-02-29T09:49:16.664Z,6.53
2024-02-29T09:51:45.550Z,6.45
2024-02-29T09:54:18.108Z,6.90
2024-02-29T09:56:46.906Z,6.95
2024-02-29T09:59:16.920Z,6.05
2024-02-29T10:01:46.203Z,5.50
2024-02-29T10:04:13.265Z,4.70
2024-02-29T10:06:40.293Z,6.30
2024-02-29T10:09:07.442Z,3.17
2024-02-29T10:11:34.737Z,5.72
2024-02-29T10:14:03.703Z,5.50
2024-02-29T10:16:33.060Z,5.50
2024-02-29T10:19:02.247Z,11.20
2024-02-29T10:21:34.504Z,7.10
2024-02-29T10:24:01.377Z,5.07
2024-02-29T10:26:28.400Z,10.53
2024-02-29T10:29:04.355Z,5.77
2024-02-29T10:31:31.752Z,5.22
2024-02-29T10:33:58.596Z,5.50
2024-02-29T10:36:25.505Z,5.28
2024-02-29T10:38:52.634Z,5.37
2024-02-29T10:41:21.227Z,5.30
2024-02-29T10:43:51.878Z,5.53
2024-02-29T10:46:22.391Z,3.22
2024-02-29T10:48:53.667Z,4.72
2024-02-29T10:51:29.397Z,4.45
2024-02-29T10:54:08.514Z,3.83
2024-02-29T10:56:37.494Z,4.28
2024-02-29T10:59:08.820Z,4.50
2024-02-29T11:01:38.155Z,3.83
2024-02-29T11:04:06.411Z,5.18
2024-02-29T11:06:40.180Z,3.58
2024-02-29T11:09:09.927Z,4.50
2024-02-29T11:11:36.868Z,3.78
2024-02-29T11:14:07.464Z,5.77
2024-02-29T11:16:37.593Z,4.88
2024-02-29T11:19:05.285Z,4.85
2024-02-29T11:21:32.490Z,4.28
2024-02-29T11:24:04.411Z,5.03
2024-02-29T11:26:35.698Z,4.10
2024-02-29T11:29:20.324Z,3.75
2024-02-29T11:31:51.945Z,2.50
2024-02-29T11:34:20.450Z,3.75
2024-02-29T11:36:48.690Z,4.88
2024-02-29T11:39:16.525Z,4.05
2024-02-29T11:41:43.860Z,3.50
2024-02-29T11:44:10.945Z,3.08
2024-02-29T11:46:47.973Z,2.97
2024-02-29T11:49:16.415Z,3.88
2024-02-29T11:51:45.288Z,3.60
2024-02-29T11:54:17.867Z,2.60
2024-02-29T11:56:44.818Z,6.03
2024-02-29T11:59:14.567Z,3.60
2024-02-29T12:01:45.198Z,2.47
2024-02-29T12:04:12.755Z,3.67
2024-02-29T12:09:16.364Z,3.63
2024-02-29T12:11:45.219Z,4.13
2024-02-29T12:14:13.593Z,3.63
2024-02-29T12:16:45.264Z,5.22
2024-02-29T12:19:14.598Z,3.45
2024-02-29T12:21:41.545Z,2.53
2024-02-29T12:24:11.220Z,2.73
2024-02-29T12:26:39.636Z,3.13
2024-02-29T12:29:08.495Z,3.13
2024-02-29T12:31:35.968Z,2.78
2024-02-29T12:34:04.690Z,2.97
2024-02-29T12:36:33.369Z,3.10
2024-02-29T12:39:01.589Z,3.08
2024-02-29T12:41:28.643Z,3.08
2024-02-29T12:43:57.505Z,3.70
2024-02-29T12:46:26.337Z,3.30
2024-02-29T12:48:53.744Z,3.30
2024-02-29T12:51:20.853Z,3.10
2024-02-29T12:53:49.742Z,2.80
2024-02-29T12:56:16.766Z,6.75
2024-02-29T12:58:48.295Z,2.80
2024-02-29T13:01:16.844Z,2.90
2024-02-29T13:03:44.422Z,3.10
2024-02-29T13:06:12.818Z,2.78
2024-02-29T13:08:40.205Z,2.70
2024-02-29T13:11:07.128Z,3.30
2024-02-29T13:13:34.249Z,2.90
2024-02-29T13:16:01.486Z,3.13
2024-02-29T13:18:31.499Z,3.25
2024-02-29T13:20:58.375Z,3.17
2024-02-29T13:23:25.428Z,2.60
2024-02-29T13:25:52.514Z,2.67
2024-02-29T13:28:20.206Z,2.73
2024-02-29T13:30:47.169Z,2.67
2024-02-29T13:33:14.191Z,2.83
2024-02-29T13:35:41.256Z,2.83
2024-02-29T13:38:08.184Z,2.50
2024-02-29T13:40:35.183Z,2.90
2024-02-29T13:43:02.126Z,2.77
2024-02-29T13:45:36.636Z,2.50
2024-02-29T13:48:03.533Z,2.40
2024-02-29T13:50:30.767Z,2.20
2024-02-29T13:52:59.918Z,1.98
2024-02-29T13:55:27.163Z,2.50
2024-02-29T13:57:54.196Z,2.20
2024-02-29T14:00:22.275Z,2.30
2024-02-29T14:02:49.099Z,2.58
2024-02-29T14:05:16.908Z,2.40
2024-02-29T14:10:15.311Z,5.15
2024-02-29T14:12:43.013Z,5.93
2024-02-29T14:15:10.072Z,1.95
2024-02-29T14:17:38.371Z,2.37
2024-02-29T14:20:07.223Z,1.92
2024-02-29T14:22:35.985Z,2.05
2024-02-29T14:25:02.954Z,2.10
2024-02-29T14:27:29.921Z,1.50
2024-02-29T14:29:58.267Z,1.90
2024-02-29T14:32:25.216Z,1.55
2024-02-29T14:34:52.007Z,1.70
2024-02-29T14:37:19.130Z,1.65
2024-02-29T14:39:47.000Z,1.65
2024-02-29T14:44:42.408Z,2.28
2024-02-29T14:47:09.359Z,2.60
2024-02-29T14:49:36.290Z,1.77
2024-02-29T14:52:03.264Z,2.20
2024-02-29T14:54:30.317Z,1.57
2024-02-29T14:56:57.786Z,1.80
2024-02-29T14:59:24.870Z,2.00
2024-02-29T15:01:51.903Z,1.83
2024-02-29T15:04:19.845Z,2.20
2024-02-29T15:06:47.219Z,1.80
2024-02-29T15:09:16.254Z,2.20
2024-02-29T15:11:43.361Z,2.55
2024-02-29T15:14:10.148Z,2.47
2024-02-29T15:16:37.003Z,2.30
2024-02-29T15:19:04.461Z,2.10
2024-02-29T15:21:31.483Z,2.00
2024-02-29T15:23:59.343Z,2.60
2024-02-29T15:28:53.670Z,2.30
2024-02-29T15:31:21.120Z,2.00
2024-02-29T15:33:48.050Z,2.65
2024-02-29T15:36:15.292Z,2.70
2024-02-29T15:38:42.638Z,3.03
2024-02-29T15:41:09.732Z,8.25
2024-02-29T15:43:36.626Z,3.30
2024-02-29T15:46:03.951Z,2.43
2024-02-29T15:48:30.861Z,2.45
2024-02-29T15:50:58.840Z,2.70
2024-02-29T15:53:25.834Z,2.70
2024-02-29T15:55:53.829Z,2.70
2024-02-29T15:58:20.673Z,2.58
2024-02-29T16:00:48.465Z,4.22
2024-02-29T16:05:42.530Z,5.00
2024-02-29T16:08:09.323Z,11.20
2024-02-29T16:10:36.244Z,15.27
2024-02-29T16:13:05.694Z,10.13
2024-02-29T16:15:33.044Z,8.18
2024-02-29T16:17:59.902Z,2.50
2024-02-29T16:20:26.787Z,2.20
2024-02-29T16:22:53.687Z,2.40
2024-02-29T16:25:22.253Z,2.60
2024-02-29T16:27:49.213Z,4.72
2024-02-29T16:30:16.044Z,5.50
2024-02-29T16:32:46.514Z,2.40
2024-02-29T16:35:14.050Z,1.92
2024-02-29T16:37:41.113Z,2.78
2024-02-29T16:40:08.694Z,2.88
2024-02-29T16:42:35.819Z,2.53
2024-02-29T16:45:02.983Z,2.20
2024-02-29T16:47:30.128Z,3.47
2024-02-29T16:49:57.404Z,3.25
2024-02-29T16:52:24.285Z,2.40
2024-02-29T16:54:51.264Z,3.07
2024-02-29T16:57:18.263Z,3.20
2024-02-29T16:59:45.144Z,2.67
2024-02-29T17:02:16.441Z,2.63
2024-02-29T17:04:44.840Z,2.03
2024-02-29T17:07:12.055Z,2.70
2024-02-29T17:09:40.257Z,6.30
2024-02-29T17:12:11.797Z,3.97
2024-02-29T17:14:38.863Z,2.47
2024-02-29T17:17:07.251Z,2.10
2024-02-29T17:19:34.270Z,2.70
2024-02-29T17:22:01.309Z,2.27
2024-02-29T17:24:28.830Z,2.13
2024-02-29T17:26:55.583Z,3.70
2024-02-29T17:29:22.393Z,3.42
2024-02-29T17:31:49.178Z,3.30
2024-02-29T17:34:16.547Z,2.83
2024-02-29T17:36:43.559Z,2.67
2024-02-29T17:39:10.378Z,3.90
2024-02-29T17:41:37.252Z,5.90
2024-02-29T17:44:04.252Z,1.55
2024-02-29T17:46:31.040Z,2.60
2024-02-29T17:48:58.060Z,50.20
2024-02-29T17:51:24.994Z,3.50
2024-02-29T17:53:51.839Z,2.28
2024-02-29T17:56:19.772Z,2.13
2024-02-29T18:58:40.643Z,3.28
2024-02-29T19:01:07.562Z,2.67
2024-02-29T19:03:34.454Z,2.77
2024-02-29T19:06:01.218Z,3.55
2024-02-29T19:08:28.573Z,2.70
2024-02-29T19:10:57.393Z,3.08
2024-02-29T19:13:24.701Z,2.80
2024-02-29T19:15:52.236Z,2.70
2024-02-29T19:18:19.859Z,2.53
2024-02-29T19:20:47.247Z,3.15
2024-02-29T19:23:14.171Z,3.10
2024-02-29T19:25:42.072Z,3.10
2024-02-29T19:30:36.455Z,3.20
2024-02-29T19:33:03.447Z,3.72
2024-02-29T19:35:32.341Z,3.57
2024-02-29T19:37:59.114Z,2.97
2024-02-29T19:40:26.672Z,3.65
2024-02-29T19:42:53.572Z,4.13
2024-02-29T19:45:20.294Z,2.20
2024-02-29T19:47:49.003Z,4.05
2024-02-29T19:50:18.993Z,2.95
2024-02-29T19:52:46.312Z,13.30
2024-02-29T19:55:13.391Z,4.80
2024-02-29T19:57:41.288Z,4.57
2024-02-29T20:02:35.372Z,4.13
2024-02-29T20:05:03.849Z,4.30
2024-02-29T20:07:31.035Z,5.18
2024-02-29T20:09:57.905Z,5.50
2024-02-29T20:12:25.579Z,5.38
2024-02-29T20:14:53.864Z,5.35
2024-02-29T20:17:21.077Z,5.97
2024-02-29T20:19:48.513Z,5.68
2024-02-29T20:22:17.730Z,6.55
2024-02-29T20:24:44.691Z,8.15
2024-02-29T20:27:11.983Z,7.07
2024-02-29T20:29:41.337Z,6.10
2024-02-29T20:32:09.810Z,6.90
2024-02-29T20:34:36.821Z,7.05
2024-02-29T20:37:03.808Z,7.10
2024-02-29T20:39:30.712Z,7.10
2024-02-29T20:41:58.080Z,7.17
2024-02-29T20:44:37.950Z,7.88
2024-02-29T20:47:05.168Z,8.45
2024-02-29T20:49:38.141Z,8.10
2024-02-29T20:52:07.904Z,8.48
2024-02-29T20:54:35.045Z,6.53
2024-02-29T20:57:06.064Z,8.90
2024-02-29T20:59:33.369Z,8.43
2024-02-29T21:02:03.009Z,9.38
2024-02-29T21:04:29.982Z,9.65
2024-02-29T21:06:56.772Z,11.07
2024-02-29T21:09:27.064Z,9.32
2024-02-29T21:11:54.302Z,9.10
2024-02-29T21:14:21.139Z,10.75
2024-02-29T21:16:48.489Z,10.60
2024-02-29T21:19:15.350Z,11.47
2024-02-29T21:21:45.962Z,10.48
2024-02-29T21:24:12.836Z,11.57
2024-02-29T21:26:39.894Z,11.10
2024-02-29T21:29:09.307Z,12.40
2024-02-29T21:31:36.261Z,12.93
2024-02-29T21:34:03.429Z,12.30
2024-02-29T21:36:32.843Z,12.23
2024-02-29T21:39:00.662Z,13.13
2024-02-29T21:41:27.436Z,11.90
2024-02-29T21:43:54.430Z,12.48
2024-02-29T21:46:22.830Z,11.93
2024-02-29T21:48:50.222Z,11.52
2024-02-29T21:51:20.402Z,12.57
2024-02-29T21:53:48.696Z,13.00
2024-02-29T21:56:15.858Z,13.30
2024-02-29T21:58:43.445Z,13.67
2024-02-29T22:01:11.148Z,13.00
2024-02-29T22:03:43.556Z,13.93
2024-02-29T22:06:10.607Z,12.50
2024-02-29T22:08:45.223Z,13.97
2024-02-29T22:11:12.369Z,13.43
2024-02-29T22:13:48.265Z,14.33
2024-02-29T22:16:15.190Z,12.63
2024-02-29T22:18:42.005Z,13.48
2024-02-29T22:21:08.744Z,13.15
2024-02-29T22:23:35.512Z,14.45
2024-02-29T22:26:02.410Z,14.07
2024-02-29T22:28:31.954Z,14.10
2024-02-29T22:30:59.403Z,14.13
2024-02-29T22:33:26.226Z,13.85
2024-02-29T22:35:53.088Z,14.60
2024-02-29T22:38:22.098Z,14.70
2024-02-29T22:40:48.987Z,13.93
2024-02-29T22:43:15.791Z,14.18
2024-02-29T22:45:43.436Z,13.63
2024-02-29T22:48:10.462Z,13.95
2024-02-29T22:50:37.269Z,14.17
2024-02-29T22:53:04.309Z,15.32
2024-02-29T22:55:31.317Z,14.63
2024-02-29T22:57:58.173Z,12.33
2024-02-29T23:00:31.811Z,15.43
2024-02-29T23:02:59.052Z,14.35
2024-02-29T23:05:26.399Z,15.77
2024-02-29T23:07:53.901Z,13.60
2024-02-29T23:10:21.227Z,14.02
2024-02-29T23:12:50.128Z,15.57
2024-02-29T23:15:18.355Z,14.52
2024-02-29T23:17:47.006Z,12.10
2024-02-29T23:20:13.852Z,15.07
2024-02-29T23:22:52.057Z,16.05
2024-02-29T23:25:21.452Z,13.82
2024-02-29T23:27:50.329Z,15.20
2024-02-29T23:30:17.343Z,14.37
2024-02-29T23:32:44.388Z,12.37
2024-02-29T23:35:11.128Z,15.53
2024-02-29T23:37:37.883Z,14.20
2024-02-29T23:40:05.732Z,15.80
2024-02-29T23:42:35.761Z,14.35
2024-02-29T23:45:02.661Z,15.05
2024-02-29T23:47:29.571Z,14.98
2024-02-29T23:49:56.485Z,11.75
2024-02-29T23:52:23.290Z,15.63
2024-02-29T23:54:51.523Z,15.50
2024-02-29T23:57:18.326Z,15.60
2024-02-29T23:59:45.130Z,15.73
